createdAt,value
2022-11-16T00:01:08.398Z,97760.22
2022-11-16T00:03:35.675Z,97741.44
2022-11-16T00:06:05.670Z,97749.69
2022-11-16T00:08:35.771Z,97749.97
2022-11-16T00:11:13.286Z,97743.53
2022-11-16T00:13:41.222Z,97740.53
2022-11-16T00:16:09.120Z,97740.53
2022-11-16T00:18:35.861Z,97741.44
2022-11-16T00:21:04.327Z,97739.72
2022-11-16T00:23:31.006Z,97733.91
2022-11-16T00:26:03.910Z,97731.84
2022-11-16T00:28:31.028Z,97725.47
2022-11-16T00:31:02.642Z,97725.63
2022-11-16T00:33:29.634Z,97709.34
2022-11-16T00:35:56.634Z,97701.47
2022-11-16T00:38:23.705Z,97698.81
2022-11-16T00:40:50.318Z,97695.34
2022-11-16T00:43:17.142Z,97682.84
2022-11-16T00:45:44.108Z,97677.91
2022-11-16T00:48:11.905Z,97681.81
2022-11-16T00:50:39.221Z,97677.31
2022-11-16T00:53:06.724Z,97674.16
2022-11-16T00:55:34.093Z,97667.28
2022-11-16T00:58:02.335Z,97655.28
2022-11-16T01:00:29.296Z,97650.09
2022-11-16T01:02:56.112Z,97655.53
2022-11-16T01:05:24.364Z,97654.81
2022-11-16T01:07:51.666Z,97648.94
2022-11-16T01:10:22.172Z,97644.03
2022-11-16T01:12:50.825Z,97625.34
2022-11-16T01:15:19.881Z,97645.13
2022-11-16T01:17:46.808Z,97635.63
2022-11-16T01:20:16.544Z,97638.63
2022-11-16T01:22:44.120Z,97629.41
2022-11-16T01:25:12.545Z,97635.28
2022-11-16T01:27:40.264Z,97631.41
2022-11-16T01:30:13.959Z,97629.31
2022-11-16T01:32:45.524Z,97623.34
2022-11-16T01:35:17.336Z,97608.47
2022-11-16T01:37:44.676Z,97624.38
2022-11-16T01:40:14.134Z,97612.88
2022-11-16T01:42:42.828Z,97616.06
2022-11-16T01:45:34.047Z,97608.28
2022-11-16T01:48:02.154Z,97605.81
2022-11-16T01:50:32.254Z,97612.56
2022-11-16T01:53:02.300Z,97588.78
2022-11-16T01:55:36.946Z,97602.47
2022-11-16T01:58:19.220Z,97594.91
2022-11-16T02:00:49.626Z,97598.94
2022-11-16T02:03:29.239Z,97591.69
2022-11-16T02:06:27.213Z,97595.91
2022-11-16T02:09:37.181Z,97583.09
2022-11-16T02:12:27.204Z,97580.34
2022-11-16T02:15:03.521Z,97582.34
2022-11-16T02:17:52.269Z,97577.22
2022-11-16T02:20:43.831Z,97583.16
2022-11-16T02:23:25.753Z,97585.72
2022-11-16T02:26:17.162Z,97577.66
2022-11-16T02:29:10.048Z,97580.75
2022-11-16T02:31:41.178Z,97577.41
2022-11-16T02:34:11.271Z,97575.75
2022-11-16T02:36:41.740Z,97574.94
2022-11-16T02:39:14.761Z,97561.13
2022-11-16T02:41:44.352Z,97567.50
2022-11-16T02:44:18.269Z,97568.22
2022-11-16T02:46:48.787Z,97562.59
2022-11-16T02:49:23.180Z,97564.38
2022-11-16T02:51:52.739Z,97544.78
2022-11-16T02:54:22.510Z,97547.34
2022-11-16T02:57:04.256Z,97541.00
2022-11-16T02:59:44.360Z,97548.50
2022-11-16T03:02:17.185Z,97539.06
2022-11-16T03:04:49.049Z,97536.78
2022-11-16T03:07:22.897Z,97535.97
2022-11-16T03:09:51.705Z,97524.91
2022-11-16T03:12:22.504Z,97524.19
2022-11-16T03:15:01.501Z,97514.16
2022-11-16T03:17:40.300Z,97511.38
2022-11-16T03:20:17.783Z,97501.34
2022-11-16T03:22:47.486Z,97487.09
2022-11-16T03:25:18.426Z,97500.34
2022-11-16T03:27:58.353Z,97499.50
2022-11-16T03:30:28.893Z,97505.25
2022-11-16T03:33:04.373Z,97507.53
2022-11-16T03:35:38.727Z,97486.69
2022-11-16T03:38:08.319Z,97481.25
2022-11-16T03:40:38.473Z,97476.25
2022-11-16T03:43:07.142Z,97471.84
2022-11-16T03:45:35.709Z,97459.97
2022-11-16T03:48:06.230Z,97445.72
2022-11-16T03:50:33.493Z,97444.06
2022-11-16T03:53:02.004Z,97432.00
2022-11-16T03:55:29.278Z,97437.34
2022-11-16T03:57:56.034Z,97434.25
2022-11-16T04:00:24.014Z,97432.44
2022-11-16T04:02:52.988Z,97434.91
2022-11-16T04:05:40.403Z,97450.88
2022-11-16T04:08:33.267Z,97447.06
2022-11-16T04:11:18.924Z,97447.34
2022-11-16T04:14:20.080Z,97466.09
2022-11-16T04:17:05.385Z,97466.81
2022-11-16T04:19:55.296Z,97465.78
2022-11-16T04:22:50.885Z,97486.19
2022-11-16T04:25:24.275Z,97481.97
2022-11-16T04:28:11.142Z,97480.75
2022-11-16T04:30:56.361Z,97487.22
2022-11-16T04:33:41.868Z,97489.50
2022-11-16T04:36:27.653Z,97499.53
2022-11-16T04:38:54.497Z,97500.09
2022-11-16T04:41:39.863Z,97495.78
2022-11-16T04:44:06.686Z,97489.13
2022-11-16T04:46:52.975Z,97483.00
2022-11-16T04:49:20.324Z,97477.06
2022-11-16T04:51:47.764Z,97466.09
2022-11-16T04:54:14.892Z,97462.06
2022-11-16T04:56:41.784Z,97478.69
2022-11-16T04:59:08.649Z,97484.22
2022-11-16T05:01:53.888Z,97474.91
2022-11-16T05:04:20.767Z,97465.28
2022-11-16T05:06:48.068Z,97464.38
2022-11-16T05:09:14.903Z,97451.66
2022-11-16T05:11:41.815Z,97451.66
2022-11-16T05:14:10.201Z,97452.09
2022-11-16T05:16:38.519Z,97436.81
2022-11-16T05:19:23.884Z,97432.69
2022-11-16T05:21:50.618Z,97427.00
2022-11-16T05:24:35.879Z,97429.16
2022-11-16T05:27:10.049Z,97425.56
2022-11-16T05:29:37.999Z,97426.28
2022-11-16T05:32:05.990Z,97431.41
2022-11-16T05:34:33.576Z,97428.44
2022-11-16T05:37:01.157Z,97412.56
2022-11-16T05:39:29.258Z,97406.63
2022-11-16T05:41:57.169Z,97389.06
2022-11-16T05:44:24.738Z,97376.66
2022-11-16T05:46:52.431Z,97370.31
2022-11-16T05:49:19.694Z,97371.44
2022-11-16T05:51:47.359Z,97349.22
2022-11-16T05:54:24.740Z,97353.19
2022-11-16T05:56:52.511Z,97345.44
2022-11-16T05:59:22.668Z,97333.75
2022-11-16T06:01:52.997Z,97332.09
2022-11-16T06:04:24.611Z,97331.31
2022-11-16T06:06:53.654Z,97311.00
2022-11-16T06:09:20.318Z,97320.63
2022-11-16T06:11:49.082Z,97319.09
2022-11-16T06:14:16.187Z,97306.19
2022-11-16T06:16:43.497Z,97294.22
2022-11-16T06:19:10.897Z,97283.13
2022-11-16T06:21:37.814Z,97288.66
2022-11-16T06:24:09.396Z,97305.03
2022-11-16T06:26:37.198Z,97303.84
2022-11-16T06:29:04.539Z,97306.09
2022-11-16T06:31:34.029Z,97308.38
2022-11-16T06:34:02.572Z,97301.81
2022-11-16T06:36:29.973Z,97302.22
2022-11-16T06:39:00.858Z,97295.56
2022-11-16T06:41:29.608Z,97304.44
2022-11-16T06:43:56.513Z,97310.19
2022-11-16T06:46:29.913Z,97318.91
2022-11-16T06:48:57.310Z,97324.03
2022-11-16T06:51:23.884Z,97323.31
2022-11-16T06:53:50.685Z,97330.47
2022-11-16T06:56:18.467Z,97337.84
2022-11-16T06:58:57.288Z,97319.00
2022-11-16T07:01:26.439Z,97313.19
2022-11-16T07:03:58.756Z,97323.00
2022-11-16T07:06:26.890Z,97336.22
2022-11-16T07:08:54.684Z,97340.41
2022-11-16T07:11:25.326Z,97341.84
2022-11-16T07:13:52.419Z,97338.25
2022-11-16T07:16:19.016Z,97329.03
2022-11-16T07:18:52.855Z,97339.59
2022-11-16T07:21:19.690Z,97338.66
2022-11-16T07:23:46.389Z,97346.69
2022-11-16T07:26:18.330Z,97337.47
2022-11-16T07:28:50.900Z,97347.91
2022-11-16T07:31:20.943Z,97328.66
2022-11-16T07:34:04.925Z,97320.22
2022-11-16T07:36:46.834Z,97333.03
2022-11-16T07:39:13.725Z,97327.09
2022-11-16T07:41:45.074Z,97328.66
2022-11-16T07:44:23.003Z,97336.00
2022-11-16T07:47:01.830Z,97327.41
2022-11-16T07:49:31.234Z,97341.81
2022-11-16T07:52:04.085Z,97338.25
2022-11-16T07:54:44.082Z,97340.00
2022-11-16T07:57:10.925Z,97344.19
2022-11-16T07:59:40.530Z,97352.59
2022-11-16T08:02:08.920Z,97348.38
2022-11-16T08:04:38.707Z,97345.63
2022-11-16T08:07:05.973Z,97351.66
2022-11-16T08:09:39.436Z,97345.00
2022-11-16T08:12:08.395Z,97351.66
2022-11-16T08:14:35.149Z,97357.28
2022-11-16T08:17:03.728Z,97351.03
2022-11-16T08:19:30.623Z,97340.88
2022-11-16T08:21:58.003Z,97353.41
2022-11-16T08:24:28.230Z,97351.84
2022-11-16T08:26:55.110Z,97357.56
2022-11-16T08:29:21.713Z,97358.19
2022-11-16T08:31:50.675Z,97346.41
2022-11-16T08:34:19.693Z,97332.97
2022-11-16T08:36:50.778Z,97350.69
2022-11-16T08:39:20.824Z,97350.47
2022-11-16T08:41:47.674Z,97348.59
2022-11-16T08:44:15.712Z,97346.03
2022-11-16T08:46:45.987Z,97336.63
2022-11-16T08:49:22.329Z,97324.94
2022-11-16T08:51:49.052Z,97331.00
2022-11-16T08:54:15.749Z,97323.19
2022-11-16T08:56:43.539Z,97316.91
2022-11-16T08:59:11.244Z,97308.03
2022-11-16T09:01:42.595Z,97315.72
2022-11-16T09:04:09.323Z,97308.41
2022-11-16T09:06:36.644Z,97287.34
2022-11-16T09:09:03.739Z,97316.00
2022-11-16T09:11:30.635Z,97316.69
2022-11-16T09:13:57.250Z,97305.53
2022-11-16T09:16:24.394Z,97300.78
2022-11-16T09:18:52.294Z,97297.38
2022-11-16T09:21:21.079Z,97307.34
2022-11-16T09:23:48.518Z,97302.19
2022-11-16T09:26:15.536Z,97301.13
2022-11-16T09:28:42.683Z,97295.72
2022-11-16T09:31:10.191Z,97289.97
2022-11-16T09:33:37.424Z,97303.06
2022-11-16T09:36:07.224Z,97301.88
2022-11-16T09:41:35.150Z,97301.63
2022-11-16T09:44:28.900Z,97294.66
2022-11-16T09:47:00.426Z,97294.66
2022-11-16T09:49:42.422Z,97295.38
2022-11-16T09:52:18.755Z,97295.25
2022-11-16T09:54:47.347Z,97282.59
2022-11-16T09:57:18.913Z,97276.66
2022-11-16T09:59:49.805Z,97278.41
2022-11-16T10:02:32.282Z,97268.41
2022-11-16T10:05:04.676Z,97269.59
2022-11-16T10:07:44.640Z,97256.41
2022-11-16T10:10:16.732Z,97256.31
2022-11-16T10:12:52.063Z,97261.00
2022-11-16T10:15:40.265Z,97263.31
2022-11-16T10:18:15.917Z,97263.81
2022-11-16T10:21:04.576Z,97255.03
2022-11-16T10:23:55.287Z,97247.00
2022-11-16T10:26:49.385Z,97246.50
2022-11-16T10:29:21.877Z,97235.06
2022-11-16T10:32:06.600Z,97235.75
2022-11-16T10:34:50.839Z,97229.00
2022-11-16T10:37:17.630Z,97233.19
2022-11-16T10:39:48.734Z,97232.75
2022-11-16T10:42:39.268Z,97230.63
2022-11-16T10:45:20.669Z,97224.44
2022-11-16T10:47:58.225Z,97214.28
2022-11-16T10:50:46.890Z,97209.72
2022-11-16T10:53:16.024Z,97209.84
2022-11-16T10:55:42.703Z,97198.63
2022-11-16T10:58:09.521Z,97201.19
2022-11-16T11:00:49.095Z,97186.28
2022-11-16T11:03:30.326Z,97180.19
2022-11-16T11:05:57.340Z,97174.28
2022-11-16T11:08:32.891Z,97170.16
2022-11-16T11:11:23.716Z,97171.44
2022-11-16T11:14:04.970Z,97171.31
2022-11-16T11:16:32.689Z,97160.34
2022-11-16T11:19:23.703Z,97165.25
2022-11-16T11:21:50.631Z,97153.66
2022-11-16T11:24:43.393Z,97160.31
2022-11-16T11:27:05.460Z,97153.59
2022-11-16T11:29:37.529Z,97159.88
2022-11-16T11:32:08.025Z,97141.78
2022-11-16T11:34:47.341Z,97146.00
2022-11-16T11:37:18.219Z,97140.25
2022-11-16T11:39:45.341Z,97148.06
2022-11-16T11:42:14.908Z,97146.66
2022-11-16T11:44:50.485Z,97136.91
2022-11-16T11:47:55.488Z,97130.84
2022-11-16T11:50:13.330Z,97119.16
2022-11-16T11:52:49.910Z,97116.78
2022-11-16T11:55:18.720Z,97118.22
2022-11-16T11:57:49.222Z,97116.47
2022-11-16T12:00:18.076Z,97106.97
2022-11-16T12:03:03.299Z,97106.44
2022-11-16T12:06:21.300Z,97109.00
2022-11-16T12:08:59.823Z,97102.81
2022-11-16T12:11:43.879Z,97088.03
2022-11-16T12:14:28.172Z,97100.31
2022-11-16T12:17:27.327Z,97091.66
2022-11-16T12:20:19.223Z,97089.88
2022-11-16T12:23:03.983Z,97080.69
2022-11-16T12:25:36.233Z,97078.53
2022-11-16T12:28:37.950Z,97077.06
2022-11-16T12:31:22.721Z,97075.63
2022-11-16T12:34:09.884Z,97070.19
2022-11-16T12:36:58.152Z,97071.59
2022-11-16T12:39:34.347Z,97065.34
2022-11-16T12:42:16.182Z,97066.47
2022-11-16T12:44:45.644Z,97062.03
2022-11-16T12:47:40.707Z,97051.59
2022-11-16T12:50:26.804Z,97052.69
2022-11-16T12:52:56.129Z,97069.22
2022-11-16T12:55:27.103Z,97072.63
2022-11-16T12:58:22.187Z,97070.59
2022-11-16T13:01:09.870Z,97067.34
2022-11-16T13:03:51.826Z,97065.84
2022-11-16T13:06:26.457Z,97077.31
2022-11-16T13:09:01.645Z,97069.56
2022-11-16T13:12:06.446Z,97063.06
2022-11-16T13:14:43.460Z,97057.50
2022-11-16T13:17:17.984Z,97044.47
2022-11-16T13:20:11.678Z,97030.34
2022-11-16T13:22:54.540Z,97031.69
2022-11-16T13:25:29.160Z,97015.19
2022-11-16T13:28:12.651Z,97029.72
2022-11-16T13:31:20.630Z,97028.31
2022-11-16T13:33:51.348Z,97029.84
2022-11-16T13:36:45.545Z,97024.69
2022-11-16T13:39:22.205Z,97016.16
2022-11-16T13:42:05.566Z,97018.16
2022-11-16T13:44:33.455Z,97019.53
2022-11-16T13:47:06.689Z,97015.06
2022-11-16T13:49:50.926Z,97017.66
2022-11-16T13:52:23.584Z,97010.28
2022-11-16T13:54:54.447Z,97013.41
2022-11-16T13:57:24.805Z,97003.25
2022-11-16T14:00:00.628Z,97001.63
2022-11-16T14:02:34.169Z,97000.66
2022-11-16T14:05:06.709Z,97017.63
2022-11-16T14:07:43.003Z,97008.91
2022-11-16T14:10:31.001Z,97007.97
2022-11-16T14:12:58.478Z,97007.03
2022-11-16T14:15:31.030Z,96999.94
2022-11-16T14:18:03.897Z,96996.44
2022-11-16T14:20:55.932Z,96992.78
2022-11-16T14:23:37.578Z,96984.31
2022-11-16T14:26:21.514Z,96974.16
2022-11-16T14:29:10.388Z,96961.13
2022-11-16T14:31:57.476Z,96976.03
2022-11-16T14:34:45.953Z,96976.16
2022-11-16T14:37:21.704Z,96990.16
2022-11-16T14:39:57.734Z,96986.38
2022-11-16T14:42:27.177Z,96986.69
2022-11-16T14:45:04.814Z,96973.81
2022-11-16T14:47:36.440Z,96973.81
2022-11-16T14:50:03.596Z,96960.69
2022-11-16T14:52:39.622Z,96973.06
2022-11-16T14:55:17.114Z,96976.44
2022-11-16T14:57:43.881Z,96966.69
2022-11-16T15:00:25.701Z,96975.03
2022-11-16T15:03:00.915Z,96974.50
2022-11-16T15:05:34.472Z,96976.25
2022-11-16T15:08:03.508Z,96982.34
2022-11-16T15:10:30.114Z,96974.72
2022-11-16T15:12:57.743Z,96975.94
2022-11-16T15:15:27.572Z,96979.72
2022-11-16T15:18:00.495Z,96981.63
2022-11-16T15:20:29.608Z,96976.84
2022-11-16T15:23:01.288Z,96977.66
2022-11-16T15:25:42.942Z,96972.09
2022-11-16T15:28:26.027Z,96965.44
2022-11-16T15:31:01.458Z,96961.75
2022-11-16T15:33:29.786Z,96955.00
2022-11-16T15:35:56.697Z,96942.00
2022-11-16T15:38:29.924Z,96954.84
2022-11-16T15:41:01.602Z,96955.59
2022-11-16T15:43:32.992Z,96965.09
2022-11-16T15:46:01.526Z,96968.28
2022-11-16T15:48:29.308Z,96955.97
2022-11-16T15:51:15.837Z,96966.91
2022-11-16T15:53:50.874Z,96971.09
2022-11-16T15:56:26.473Z,96982.41
2022-11-16T15:58:54.234Z,96982.81
2022-11-16T16:01:22.173Z,96970.78
2022-11-16T16:03:59.176Z,96974.84
2022-11-16T16:06:51.480Z,96988.78
2022-11-16T16:09:27.179Z,96989.41
2022-11-16T16:11:54.811Z,96987.88
2022-11-16T16:14:29.576Z,96985.09
2022-11-16T16:16:58.597Z,96978.31
2022-11-16T16:19:41.861Z,96980.97
2022-11-16T16:22:27.403Z,96987.53
2022-11-16T16:24:54.853Z,96988.91
2022-11-16T16:27:23.843Z,96988.34
2022-11-16T16:29:52.692Z,96987.16
2022-11-16T16:32:29.597Z,96996.50
2022-11-16T16:35:01.281Z,96996.63
2022-11-16T16:37:30.341Z,96977.16
2022-11-16T16:39:57.648Z,97001.06
2022-11-16T16:42:24.958Z,97005.97
2022-11-16T16:44:52.084Z,97011.75
2022-11-16T16:47:22.855Z,97012.59
2022-11-16T16:49:49.846Z,97022.13
2022-11-16T16:52:16.848Z,97027.03
2022-11-16T16:54:43.609Z,97033.34
2022-11-16T16:57:15.021Z,97020.63
2022-11-16T16:59:43.917Z,97012.97
2022-11-16T17:02:14.559Z,97015.06
2022-11-16T17:04:41.426Z,97029.31
2022-11-16T17:07:08.029Z,97014.19
2022-11-16T17:09:34.735Z,97026.31
2022-11-16T17:12:01.275Z,97025.03
2022-11-16T17:14:27.899Z,96999.63
2022-11-16T17:16:54.505Z,97028.31
2022-11-16T17:19:22.045Z,97024.94
2022-11-16T17:21:48.882Z,97030.88
2022-11-16T17:24:15.548Z,97041.41
2022-11-16T17:26:42.436Z,97047.50
2022-11-16T17:29:09.075Z,97044.34
2022-11-16T17:31:36.269Z,97047.09
2022-11-16T17:34:03.066Z,97048.63
2022-11-16T17:36:29.646Z,97050.88
2022-11-16T17:38:56.409Z,97057.38
2022-11-16T17:41:22.991Z,97066.38
2022-11-16T17:43:53.026Z,97066.50
2022-11-16T17:46:21.699Z,97074.19
2022-11-16T17:48:49.398Z,97086.81
2022-11-16T17:51:22.094Z,97078.66
2022-11-16T17:53:49.831Z,97079.00
2022-11-16T17:56:21.705Z,97080.75
2022-11-16T17:58:50.289Z,97074.34
2022-11-16T18:01:19.824Z,97086.00
2022-11-16T18:03:46.478Z,97084.84
2022-11-16T18:06:16.156Z,97075.38
2022-11-16T18:08:43.766Z,97075.38
2022-11-16T18:11:16.380Z,97080.84
2022-11-16T18:13:43.687Z,97081.09
2022-11-16T18:16:11.456Z,97087.28
2022-11-16T18:18:39.188Z,97092.28
2022-11-16T18:21:07.412Z,97092.88
2022-11-16T18:23:35.721Z,97093.53
2022-11-16T18:26:07.852Z,97099.41
2022-11-16T18:28:34.890Z,97107.66
2022-11-16T18:31:06.885Z,97108.13
2022-11-16T18:33:35.711Z,97104.06
2022-11-16T18:36:03.895Z,97113.41
2022-11-16T18:38:31.150Z,97101.59
2022-11-16T18:41:11.429Z,97106.59
2022-11-16T18:43:51.871Z,97106.72
2022-11-16T18:46:19.974Z,97113.63
2022-11-16T18:48:46.956Z,97107.41
2022-11-16T18:51:15.648Z,97095.28
2022-11-16T18:53:42.485Z,97091.41
2022-11-16T18:56:09.778Z,97079.16
2022-11-16T18:58:49.786Z,97085.13
2022-11-16T19:01:19.506Z,97078.47
2022-11-16T19:03:46.198Z,97076.13
2022-11-16T19:06:14.799Z,97075.56
2022-11-16T19:08:42.481Z,97077.88
2022-11-16T19:11:12.299Z,97078.97
2022-11-16T19:13:40.428Z,97061.78
2022-11-16T19:16:08.276Z,97056.19
2022-11-16T19:18:35.894Z,97062.28
2022-11-16T19:21:08.169Z,97060.41
2022-11-16T19:23:40.081Z,97062.59
2022-11-16T19:26:07.121Z,97061.78
2022-11-16T19:28:37.806Z,97055.50
2022-11-16T19:31:16.664Z,97063.06
2022-11-16T19:33:44.606Z,97062.13
2022-11-16T19:36:14.234Z,97054.88
2022-11-16T19:38:41.579Z,97052.78
2022-11-16T19:41:10.212Z,97051.97
2022-11-16T19:43:37.248Z,97052.41
2022-11-16T19:46:16.605Z,97047.06
2022-11-16T19:49:28.174Z,97043.94
2022-11-16T19:52:55.746Z,97063.75
2022-11-16T19:55:57.099Z,97065.63
2022-11-16T19:59:36.462Z,97068.56
2022-11-16T20:03:04.009Z,97079.50
2022-11-16T20:06:07.535Z,97094.44
2022-11-16T20:09:14.487Z,97088.97
2022-11-16T20:12:13.165Z,97096.56
2022-11-16T20:15:12.261Z,97098.69
2022-11-16T20:18:31.470Z,97110.94
2022-11-16T20:21:22.093Z,97111.50
2022-11-16T20:24:06.321Z,97114.44
2022-11-16T20:27:11.212Z,97107.22
2022-11-16T20:29:50.768Z,97107.13
2022-11-16T20:32:44.196Z,97102.31
2022-11-16T20:35:23.943Z,97106.63
2022-11-16T20:37:57.916Z,97099.66
2022-11-16T20:40:44.271Z,97098.94
2022-11-16T20:43:21.184Z,97094.63
2022-11-16T20:46:02.975Z,97098.25
2022-11-16T20:48:40.441Z,97093.47
2022-11-16T20:51:38.357Z,97106.16
2022-11-16T20:54:24.308Z,97112.56
2022-11-16T20:57:08.763Z,97098.25
2022-11-16T21:00:13.644Z,97097.19
2022-11-16T21:02:47.980Z,97106.16
2022-11-16T21:06:12.698Z,97105.84
2022-11-16T21:09:26.034Z,97105.25
2022-11-16T21:12:44.015Z,97110.72
2022-11-16T21:15:40.414Z,97100.81
2022-11-16T21:18:26.491Z,97100.44
2022-11-16T21:21:15.943Z,97112.91
2022-11-16T21:23:58.467Z,97112.81
2022-11-16T21:26:43.995Z,97113.03
2022-11-16T21:29:58.844Z,97102.78
2022-11-16T21:32:26.507Z,97108.94
2022-11-16T21:35:04.994Z,97082.13
2022-11-16T21:37:57.189Z,97070.84
2022-11-16T21:40:40.797Z,97076.19
2022-11-16T21:43:48.403Z,97069.31
2022-11-16T21:46:28.385Z,97065.47
2022-11-16T21:49:24.506Z,97045.19
2022-11-16T21:51:59.048Z,97060.81
2022-11-16T21:54:50.995Z,97064.31
2022-11-16T21:57:27.549Z,97063.63
2022-11-16T22:00:23.045Z,97065.03
2022-11-16T22:03:11.122Z,97080.28
2022-11-16T22:06:20.554Z,97081.09
2022-11-16T22:09:01.334Z,97094.81
2022-11-16T22:12:04.971Z,97100.78
2022-11-16T22:14:50.130Z,97091.94
2022-11-16T22:17:36.725Z,97092.97
2022-11-16T22:20:43.309Z,97098.69
2022-11-16T22:23:35.027Z,97100.81
2022-11-16T22:26:23.903Z,97092.41
2022-11-16T22:29:28.077Z,97091.25
2022-11-16T22:32:07.001Z,97075.97
2022-11-16T22:34:52.027Z,97067.00
2022-11-16T22:37:40.674Z,97069.44
2022-11-16T22:40:41.964Z,97066.28
2022-11-16T22:43:26.456Z,97072.59
2022-11-16T22:46:08.065Z,97071.06
2022-11-16T22:48:47.863Z,97064.19
2022-11-16T22:51:34.615Z,97047.19
2022-11-16T22:54:11.922Z,97035.31
2022-11-16T22:56:46.420Z,97053.59
2022-11-16T22:59:17.035Z,97068.28
2022-11-16T23:02:05.778Z,97053.94
2022-11-16T23:04:50.922Z,97054.78
2022-11-16T23:07:28.090Z,97061.31
2022-11-16T23:10:54.363Z,97053.59
2022-11-16T23:13:50.421Z,97056.63
2022-11-16T23:16:29.104Z,97063.38
2022-11-16T23:19:22.676Z,97059.19
2022-11-16T23:22:22.044Z,97064.41
2022-11-16T23:25:14.110Z,97057.53
2022-11-16T23:28:27.472Z,97054.03
2022-11-16T23:31:18.769Z,97050.06
2022-11-16T23:34:07.306Z,97063.34
2022-11-16T23:36:52.454Z,97061.03
2022-11-16T23:39:38.059Z,97056.56
2022-11-16T23:42:35.700Z,97043.38
2022-11-16T23:45:09.089Z,97037.56
2022-11-16T23:47:45.384Z,97049.31
2022-11-16T23:50:18.923Z,97042.34
2022-11-16T23:52:46.437Z,97038.03
2022-11-16T23:55:38.237Z,97050.72
2022-11-16T23:58:14.873Z,97048.66
